createdAt,value
2019-05-12T00:00:28.832Z,99.90
2019-05-12T00:02:59.374Z,99.90
2019-05-12T00:05:29.633Z,99.90
2019-05-12T00:07:59.521Z,99.90
2019-05-12T00:10:29.076Z,99.90
2019-05-12T00:12:59.007Z,99.90
2019-05-12T00:15:28.829Z,99.90
2019-05-12T00:17:58.825Z,99.90
2019-05-12T00:20:28.825Z,99.90
2019-05-12T00:23:01.732Z,99.90
2019-05-12T00:25:31.294Z,99.90
2019-05-12T00:28:00.832Z,99.90
2019-05-12T00:30:58.043Z,99.90
2019-05-12T00:33:28.280Z,99.90
2019-05-12T00:35:58.713Z,99.90
2019-05-12T00:38:28.480Z,99.90
2019-05-12T00:40:58.483Z,99.90
2019-05-12T00:43:28.376Z,99.90
2019-05-12T00:45:58.694Z,99.90
2019-05-12T00:48:28.611Z,99.90
2019-05-12T00:50:58.558Z,99.90
2019-05-12T00:53:39.298Z,99.90
2019-05-12T00:55:59.769Z,99.90
2019-05-12T00:58:29.640Z,99.90
2019-05-12T01:00:59.687Z,99.90
2019-05-12T01:03:29.999Z,99.90
2019-05-12T01:05:59.548Z,99.90
2019-05-12T01:08:29.412Z,99.90
2019-05-12T01:10:58.965Z,99.90
2019-05-12T01:13:28.504Z,99.90
2019-05-12T01:15:58.666Z,99.90
2019-05-12T01:18:28.460Z,99.90
2019-05-12T01:20:58.431Z,99.90
2019-05-12T01:23:28.385Z,99.90
2019-05-12T01:25:58.593Z,99.90
2019-05-12T01:28:28.428Z,99.90
2019-05-12T01:30:59.633Z,99.90
2019-05-12T01:33:29.199Z,99.90
2019-05-12T01:35:58.887Z,99.90
2019-05-12T01:38:28.821Z,99.90
2019-05-12T01:40:58.597Z,99.90
2019-05-12T01:43:28.131Z,99.90
2019-05-12T01:45:58.928Z,99.90
2019-05-12T01:48:37.765Z,99.90
2019-05-12T01:51:08.398Z,99.90
2019-05-12T01:53:38.130Z,99.90
2019-05-12T01:56:07.960Z,99.90
2019-05-12T01:58:38.151Z,99.90
2019-05-12T02:01:08.281Z,99.90
2019-05-12T02:03:38.265Z,99.90
2019-05-12T02:06:08.416Z,99.90
2019-05-12T02:08:44.633Z,99.90
2019-05-12T02:11:32.749Z,99.90
2019-05-12T02:14:06.058Z,99.90
2019-05-12T02:16:38.460Z,99.90
2019-05-12T02:19:08.983Z,99.90
2019-05-12T02:21:38.885Z,99.90
2019-05-12T02:24:23.020Z,99.90
2019-05-12T02:26:40.030Z,99.90
2019-05-12T02:29:09.937Z,99.90
2019-05-12T02:31:40.082Z,99.90
2019-05-12T02:34:10.103Z,99.90
2019-05-12T02:36:39.657Z,99.90
2019-05-12T02:39:09.352Z,99.90
2019-05-12T02:41:38.960Z,99.90
2019-05-12T02:44:08.623Z,99.90
2019-05-12T02:46:38.177Z,99.90
2019-05-12T02:49:07.745Z,99.90
2019-05-12T02:51:37.578Z,99.90
2019-05-12T02:54:07.353Z,99.90
2019-05-12T02:56:37.777Z,99.90
2019-05-12T02:59:08.585Z,99.90
2019-05-12T03:01:39.182Z,99.90
2019-05-12T03:04:13.791Z,99.90
2019-05-12T03:06:44.579Z,99.90
2019-05-12T03:09:15.253Z,99.90
2019-05-12T03:11:46.477Z,99.90
2019-05-12T03:14:16.139Z,99.90
2019-05-12T03:16:46.201Z,99.90
2019-05-12T03:19:16.526Z,99.90
2019-05-12T03:21:46.638Z,99.90
2019-05-12T03:24:17.606Z,99.90
2019-05-12T03:26:47.335Z,99.90
2019-05-12T03:29:16.896Z,99.90
2019-05-12T03:31:48.890Z,99.90
2019-05-12T03:34:20.082Z,99.90
2019-05-12T03:36:51.914Z,99.90
2019-05-12T03:39:20.818Z,99.90
2019-05-12T03:41:50.730Z,99.90
2019-05-12T03:44:20.312Z,99.90
2019-05-12T03:46:50.289Z,99.90
2019-05-12T03:49:20.095Z,99.90
2019-05-12T03:51:49.658Z,99.90
2019-05-12T03:54:24.719Z,99.90
2019-05-12T03:56:55.654Z,99.90
2019-05-12T03:59:25.697Z,99.90
2019-05-12T04:01:55.708Z,99.90
2019-05-12T04:04:25.285Z,99.90
2019-05-12T04:06:55.118Z,99.90
2019-05-12T04:09:24.800Z,99.90
2019-05-12T04:11:56.077Z,99.90
2019-05-12T04:14:25.646Z,99.90
2019-05-12T04:16:55.369Z,99.90
2019-05-12T04:19:25.209Z,99.90
2019-05-12T04:21:54.895Z,99.90
2019-05-12T04:24:25.060Z,99.90
2019-05-12T04:26:55.313Z,99.90
2019-05-12T04:29:25.181Z,99.90
2019-05-12T04:31:55.018Z,99.90
2019-05-12T04:34:25.295Z,99.90
2019-05-12T04:36:55.635Z,99.90
2019-05-12T04:39:25.548Z,99.90
2019-05-12T04:41:55.363Z,99.90
2019-05-12T04:44:25.423Z,99.90
2019-05-12T04:46:55.558Z,99.90
2019-05-12T04:49:25.389Z,99.90
2019-05-12T04:51:55.042Z,99.90
2019-05-12T04:54:24.872Z,99.90
2019-05-12T04:56:55.256Z,99.90
2019-05-12T04:59:25.544Z,99.90
2019-05-12T05:01:55.348Z,99.90
2019-05-12T05:04:24.880Z,99.90
2019-05-12T05:06:55.057Z,99.90
2019-05-12T05:09:24.893Z,99.90
2019-05-12T05:11:54.460Z,99.90
2019-05-12T05:14:24.824Z,99.90
2019-05-12T05:16:54.641Z,99.90
2019-05-12T05:19:24.557Z,99.90
2019-05-12T05:21:54.272Z,99.90
2019-05-12T05:24:23.926Z,99.90
2019-05-12T05:26:54.585Z,99.90
2019-05-12T05:29:24.157Z,99.90
2019-05-12T05:31:53.765Z,99.90
2019-05-12T05:34:23.769Z,99.90
2019-05-12T05:36:57.252Z,99.90
2019-05-12T05:39:25.003Z,99.90
2019-05-12T05:41:54.824Z,99.90
2019-05-12T05:44:29.126Z,99.90
2019-05-12T05:46:56.760Z,99.90
2019-05-12T05:49:26.492Z,99.90
2019-05-12T05:51:57.605Z,99.90
2019-05-12T05:54:31.801Z,99.90
2019-05-12T05:57:02.815Z,99.90
2019-05-12T05:59:31.817Z,99.90
2019-05-12T06:02:01.389Z,99.90
2019-05-12T06:04:31.017Z,99.90
2019-05-12T06:07:00.898Z,99.90
2019-05-12T06:09:30.475Z,99.90
2019-05-12T06:12:05.149Z,99.90
2019-05-12T06:14:34.066Z,99.90
2019-05-12T06:17:04.316Z,99.90
2019-05-12T06:19:34.340Z,99.90
2019-05-12T06:22:15.364Z,99.90
2019-05-12T06:24:41.037Z,99.90
2019-05-12T06:27:19.525Z,99.90
2019-05-12T06:29:43.766Z,99.90
2019-05-12T06:32:14.163Z,99.90
2019-05-12T06:34:43.951Z,99.90
2019-05-12T06:37:16.959Z,99.90
2019-05-12T06:39:45.472Z,99.90
2019-05-12T06:42:16.985Z,99.90
2019-05-12T06:44:49.040Z,99.90
2019-05-12T06:47:18.161Z,99.90
2019-05-12T06:49:48.893Z,99.90
2019-05-12T06:52:19.481Z,99.90
2019-05-12T06:54:51.322Z,99.90
2019-05-12T06:57:25.350Z,99.90
2019-05-12T06:59:53.120Z,99.90
2019-05-12T07:02:24.500Z,99.90
2019-05-12T07:04:59.334Z,99.90
2019-05-12T07:07:27.688Z,99.90
2019-05-12T07:10:02.573Z,99.90
2019-05-12T07:12:33.606Z,99.90
2019-05-12T07:14:59.680Z,99.90
2019-05-12T07:17:43.721Z,99.90
2019-05-12T07:20:10.201Z,99.90
2019-05-12T07:22:44.092Z,99.90
2019-05-12T07:25:13.434Z,99.90
2019-05-12T07:27:47.319Z,99.90
2019-05-12T07:30:16.179Z,99.90
2019-05-12T07:32:46.181Z,99.90
2019-05-12T07:35:15.998Z,99.90
2019-05-12T07:37:46.713Z,99.90
2019-05-12T07:40:18.931Z,99.90
2019-05-12T07:42:50.113Z,99.90
2019-05-12T07:45:22.410Z,99.90
2019-05-12T07:47:54.009Z,99.90
2019-05-12T07:50:27.000Z,99.90
2019-05-12T07:52:54.917Z,99.90
2019-05-12T07:55:24.882Z,99.90
2019-05-12T07:57:58.605Z,99.90
2019-05-12T08:00:25.889Z,99.90
2019-05-12T08:02:55.797Z,99.90
2019-05-12T08:05:25.350Z,99.90
2019-05-12T08:07:55.208Z,99.90
2019-05-12T08:10:24.829Z,99.90
2019-05-12T08:12:59.373Z,99.90
2019-05-12T08:15:25.849Z,99.90
2019-05-12T08:17:59.509Z,99.90
2019-05-12T08:20:27.854Z,99.90
2019-05-12T08:22:59.615Z,99.90
2019-05-12T08:25:29.310Z,99.90
2019-05-12T08:28:11.073Z,99.90
2019-05-12T08:30:47.565Z,99.90
2019-05-12T08:33:14.676Z,99.90
2019-05-12T08:35:44.138Z,99.90
2019-05-12T08:38:14.468Z,99.90
2019-05-12T08:40:49.332Z,99.90
2019-05-12T08:43:15.984Z,99.90
2019-05-12T08:45:45.548Z,99.90
2019-05-12T08:48:21.438Z,99.90
2019-05-12T08:50:47.370Z,99.90
2019-05-12T08:53:21.319Z,99.90
2019-05-12T08:55:48.388Z,99.90
2019-05-12T08:58:30.329Z,99.90
2019-05-12T09:00:51.184Z,99.90
2019-05-12T09:03:27.120Z,99.90
2019-05-12T09:05:53.720Z,99.90
2019-05-12T09:08:24.414Z,99.90
2019-05-12T09:10:55.559Z,99.90
2019-05-12T09:13:25.629Z,99.90
2019-05-12T09:15:55.853Z,99.90
2019-05-12T09:18:33.759Z,99.90
2019-05-12T09:20:57.636Z,99.90
2019-05-12T09:23:32.738Z,99.90
2019-05-12T09:25:59.113Z,99.90
2019-05-12T09:28:43.593Z,99.90
2019-05-12T09:31:00.844Z,99.90
2019-05-12T09:33:32.475Z,99.90
2019-05-12T09:36:04.334Z,99.90
2019-05-12T09:38:44.029Z,99.90
2019-05-12T09:41:14.152Z,99.90
2019-05-12T09:43:46.440Z,99.90
2019-05-12T09:46:16.096Z,99.90
2019-05-12T09:48:52.127Z,99.90
2019-05-12T09:51:17.760Z,99.90
2019-05-12T09:53:53.223Z,99.90
2019-05-12T09:56:23.820Z,99.90
2019-05-12T09:59:01.558Z,99.90
2019-05-12T10:01:29.116Z,99.90
2019-05-12T10:03:58.728Z,99.90
2019-05-12T10:06:28.270Z,99.90
2019-05-12T10:08:58.141Z,99.90
2019-05-12T10:11:27.928Z,99.90
2019-05-12T10:14:08.512Z,99.90
2019-05-12T10:16:39.583Z,99.90
2019-05-12T10:19:06.789Z,99.90
2019-05-12T10:21:36.713Z,99.90
2019-05-12T10:24:06.279Z,99.90
2019-05-12T10:26:36.146Z,99.90
2019-05-12T10:29:16.454Z,99.90
2019-05-12T10:31:39.375Z,99.90
2019-05-12T10:34:23.615Z,99.90
2019-05-12T10:36:53.734Z,99.90
2019-05-12T10:39:24.666Z,99.90
2019-05-12T10:41:54.803Z,99.90
2019-05-12T10:44:29.822Z,99.90
2019-05-12T10:46:58.034Z,99.90
2019-05-12T10:49:27.602Z,99.90
2019-05-12T10:51:59.230Z,99.90
2019-05-12T10:54:38.049Z,99.90
2019-05-12T10:57:14.085Z,99.90
2019-05-12T10:59:48.461Z,99.90
2019-05-12T11:02:20.526Z,99.90
2019-05-12T11:04:47.029Z,99.90
2019-05-12T11:07:16.830Z,99.90
2019-05-12T11:09:46.373Z,99.90
2019-05-12T11:12:25.161Z,99.90
2019-05-12T11:14:54.125Z,99.90
2019-05-12T11:17:24.552Z,99.90
2019-05-12T11:19:54.522Z,99.90
2019-05-12T11:22:24.397Z,99.90
2019-05-12T11:24:55.868Z,99.90
2019-05-12T11:27:25.661Z,99.90
2019-05-12T11:29:55.776Z,99.90
2019-05-12T11:32:28.859Z,99.90
2019-05-12T11:34:57.137Z,99.90
2019-05-12T11:37:29.051Z,99.90
2019-05-12T11:39:58.611Z,99.90
2019-05-12T11:42:28.177Z,99.90
2019-05-12T11:44:57.719Z,99.90
2019-05-12T11:47:27.284Z,99.90
2019-05-12T11:49:58.604Z,99.90
2019-05-12T11:52:28.802Z,99.90
2019-05-12T11:54:58.708Z,99.90
2019-05-12T11:57:30.324Z,99.90
2019-05-12T12:00:02.262Z,99.90
2019-05-12T12:02:31.100Z,99.90
2019-05-12T12:05:00.650Z,99.90
2019-05-12T12:07:30.537Z,99.90
2019-05-12T12:10:08.621Z,99.90
2019-05-12T12:12:39.651Z,99.90
2019-05-12T12:15:09.713Z,99.90
2019-05-12T12:17:39.294Z,99.90
2019-05-12T12:20:14.001Z,99.90
2019-05-12T12:22:44.486Z,99.90
2019-05-12T12:25:16.672Z,99.90
2019-05-12T12:27:46.471Z,99.90
2019-05-12T12:30:19.900Z,99.90
2019-05-12T12:32:55.295Z,99.90
2019-05-12T12:35:23.202Z,99.90
2019-05-12T12:37:54.154Z,99.90
2019-05-12T12:40:23.860Z,99.90
2019-05-12T12:42:53.871Z,99.90
2019-05-12T12:45:45.846Z,99.90
2019-05-12T12:48:19.417Z,99.90
2019-05-12T12:50:47.265Z,99.90
2019-05-12T12:53:17.088Z,99.90
2019-05-12T12:55:47.009Z,99.90
2019-05-12T12:58:21.152Z,99.90
2019-05-12T13:00:53.858Z,99.90
2019-05-12T13:03:33.998Z,99.90
2019-05-12T13:06:04.696Z,99.90
2019-05-12T13:08:34.599Z,99.90
2019-05-12T13:11:04.582Z,99.90
2019-05-12T13:13:34.136Z,99.90
2019-05-12T13:16:04.194Z,99.90
2019-05-12T13:18:36.400Z,99.90
2019-05-12T13:21:06.222Z,99.90
2019-05-12T13:23:40.749Z,99.90
2019-05-12T13:26:13.440Z,99.90
2019-05-12T13:28:47.502Z,99.90
2019-05-12T13:31:16.176Z,99.90
2019-05-12T13:33:49.371Z,99.90
2019-05-12T13:36:17.160Z,99.90
2019-05-12T13:38:46.752Z,99.90
2019-05-12T13:41:19.880Z,99.90
2019-05-12T13:43:54.469Z,99.90
2019-05-12T13:46:19.632Z,99.90
2019-05-12T13:48:49.823Z,99.90
2019-05-12T13:51:21.141Z,99.90
2019-05-12T13:53:51.085Z,99.90
2019-05-12T13:56:25.798Z,99.90
2019-05-12T13:58:53.992Z,99.90
2019-05-12T14:01:24.841Z,99.90
2019-05-12T14:03:54.657Z,99.90
2019-05-12T14:06:32.207Z,99.90
2019-05-12T14:08:55.624Z,99.90
2019-05-12T14:11:37.585Z,99.90
2019-05-12T14:14:11.421Z,99.90
2019-05-12T14:16:44.652Z,99.90
2019-05-12T14:19:10.847Z,99.90
2019-05-12T14:21:41.348Z,99.90
2019-05-12T14:24:13.915Z,99.90
2019-05-12T14:26:45.573Z,99.90
2019-05-12T14:29:15.265Z,99.90
2019-05-12T14:31:54.270Z,99.90
2019-05-12T14:34:20.770Z,99.90
2019-05-12T14:36:47.584Z,99.90
2019-05-12T14:39:17.481Z,99.90
2019-05-12T14:41:53.257Z,99.90
2019-05-12T14:44:18.969Z,99.90
2019-05-12T14:46:50.635Z,99.90
2019-05-12T14:49:20.251Z,99.90
2019-05-12T14:51:53.557Z,99.90
2019-05-12T14:54:23.882Z,99.90
2019-05-12T14:56:57.681Z,99.90
2019-05-12T14:59:30.064Z,99.90
2019-05-12T15:01:59.584Z,99.90
2019-05-12T15:04:29.954Z,99.90
2019-05-12T15:07:04.872Z,99.90
2019-05-12T15:09:34.056Z,99.90
2019-05-12T15:12:03.916Z,99.90
2019-05-12T15:14:38.008Z,99.90
2019-05-12T15:17:06.960Z,99.90
2019-05-12T15:19:36.533Z,99.90
2019-05-12T15:22:07.737Z,99.90
2019-05-12T15:24:44.196Z,99.90
2019-05-12T15:27:14.079Z,99.90
2019-05-12T15:29:43.805Z,99.90
2019-05-12T15:32:15.273Z,99.90
2019-05-12T15:34:44.624Z,99.90
2019-05-12T15:37:14.554Z,99.90
2019-05-12T15:39:44.452Z,99.90
2019-05-12T15:42:14.381Z,99.90
2019-05-12T15:44:47.106Z,99.90
2019-05-12T15:47:15.292Z,99.90
2019-05-12T15:49:50.717Z,99.90
2019-05-12T15:52:20.693Z,99.90
2019-05-12T15:54:51.403Z,99.90
2019-05-12T15:57:24.247Z,99.90
2019-05-12T15:59:54.182Z,99.90
2019-05-12T16:02:24.132Z,99.90
2019-05-12T16:04:54.954Z,98.00
2019-05-12T16:07:29.608Z,93.40
2019-05-12T16:09:56.093Z,92.30
2019-05-12T16:12:26.838Z,92.10
2019-05-12T16:14:56.978Z,85.50
2019-05-12T16:17:27.221Z,77.00
2019-05-12T16:19:57.065Z,70.30
2019-05-12T16:22:30.735Z,70.80
2019-05-12T16:24:58.260Z,67.50
2019-05-12T16:27:35.593Z,69.00
2019-05-12T16:29:59.524Z,64.60
2019-05-12T16:32:39.645Z,61.10
2019-05-12T16:35:05.072Z,55.80
2019-05-12T16:37:35.186Z,56.50
2019-05-12T16:40:04.953Z,56.70
2019-05-12T16:42:34.514Z,55.10
2019-05-12T16:45:08.286Z,54.40
2019-05-12T16:47:36.216Z,54.70
2019-05-12T16:50:15.775Z,57.50
2019-05-12T16:52:40.534Z,54.30
2019-05-12T16:55:09.834Z,53.20
2019-05-12T16:57:47.584Z,53.60
2019-05-12T17:00:13.909Z,57.30
2019-05-12T17:02:51.966Z,56.90
2019-05-12T17:05:19.761Z,55.70
2019-05-12T17:07:50.392Z,56.70
2019-05-12T17:10:17.763Z,55.60
2019-05-12T17:12:48.469Z,54.20
2019-05-12T17:15:18.339Z,49.30
2019-05-12T17:17:50.722Z,48.90
2019-05-12T17:20:19.835Z,45.60
2019-05-12T17:23:00.187Z,46.60
2019-05-12T17:25:29.348Z,48.00
2019-05-12T17:28:03.874Z,45.00
2019-05-12T17:30:30.491Z,45.10
2019-05-12T17:33:02.613Z,47.60
2019-05-12T17:35:34.652Z,44.00
2019-05-12T17:38:04.245Z,44.50
2019-05-12T17:40:34.490Z,46.10
2019-05-12T17:43:11.534Z,42.30
2019-05-12T17:45:36.551Z,43.60
2019-05-12T17:48:07.712Z,44.00
2019-05-12T17:50:44.095Z,40.10
2019-05-12T17:53:08.884Z,44.20
2019-05-12T17:55:42.655Z,43.40
2019-05-12T17:58:09.741Z,42.80
2019-05-12T18:00:41.277Z,40.80
2019-05-12T18:03:20.439Z,42.70
2019-05-12T18:05:47.389Z,42.00
2019-05-12T18:08:14.273Z,40.40
2019-05-12T18:10:44.257Z,44.10
2019-05-12T18:13:15.066Z,45.70
2019-05-12T18:15:45.378Z,46.90
2019-05-12T18:18:17.402Z,47.20
2019-05-12T18:20:46.808Z,49.00
2019-05-12T18:23:19.752Z,48.50
2019-05-12T18:25:47.777Z,48.90
2019-05-12T18:28:21.794Z,50.30
2019-05-12T18:30:49.005Z,52.20
2019-05-12T18:33:30.779Z,53.60
2019-05-12T18:35:50.824Z,55.20
2019-05-12T18:38:26.142Z,56.20
2019-05-12T18:40:54.062Z,53.90
2019-05-12T18:43:24.385Z,52.90
2019-05-12T18:45:57.129Z,53.80
2019-05-12T18:48:25.480Z,55.30
2019-05-12T18:51:02.843Z,56.80
2019-05-12T18:53:31.961Z,57.60
2019-05-12T18:56:00.802Z,59.30
2019-05-12T18:58:32.654Z,59.60
2019-05-12T19:01:03.377Z,60.50
2019-05-12T19:03:46.345Z,61.30
2019-05-12T19:06:04.541Z,64.10
2019-05-12T19:08:34.420Z,63.20
2019-05-12T19:11:18.060Z,64.50
2019-05-12T19:13:35.709Z,66.50
2019-05-12T19:16:16.284Z,66.50
2019-05-12T19:18:47.889Z,69.30
2019-05-12T19:21:20.130Z,70.60
2019-05-12T19:23:48.976Z,71.10
2019-05-12T19:26:18.534Z,74.20
2019-05-12T19:28:52.924Z,76.10
2019-05-12T19:31:19.960Z,74.80
2019-05-12T19:34:10.339Z,76.80
2019-05-12T19:36:21.324Z,78.90
2019-05-12T19:38:51.206Z,80.00
2019-05-12T19:41:20.750Z,82.90
2019-05-12T19:43:50.317Z,84.90
2019-05-12T19:46:19.872Z,88.30
2019-05-12T19:48:50.078Z,90.50
2019-05-12T19:51:24.781Z,91.70
2019-05-12T19:53:51.939Z,93.00
2019-05-12T19:56:23.628Z,94.40
2019-05-12T19:58:53.827Z,97.60
2019-05-12T20:01:32.276Z,99.90
2019-05-12T20:03:55.545Z,99.90
2019-05-12T20:06:26.698Z,99.90
2019-05-12T20:09:06.235Z,99.90
2019-05-12T20:11:31.391Z,99.90
2019-05-12T20:13:59.313Z,99.90
2019-05-12T20:16:30.413Z,99.90
2019-05-12T20:19:00.291Z,99.90
2019-05-12T20:21:29.846Z,99.90
2019-05-12T20:23:59.421Z,99.90
2019-05-12T20:26:33.231Z,99.90
2019-05-12T20:29:01.240Z,99.90
2019-05-12T20:31:35.421Z,99.90
2019-05-12T20:34:10.251Z,99.90
2019-05-12T20:36:35.081Z,99.90
2019-05-12T20:39:09.955Z,99.90
2019-05-12T20:41:39.053Z,99.90
2019-05-12T20:44:09.712Z,99.90
2019-05-12T20:46:39.868Z,99.90
2019-05-12T20:49:11.966Z,99.90
2019-05-12T20:51:40.821Z,99.90
2019-05-12T20:54:16.130Z,99.90
2019-05-12T20:56:43.475Z,99.90
2019-05-12T20:59:21.761Z,99.90
2019-05-12T21:01:44.708Z,99.90
2019-05-12T21:04:14.341Z,99.90
2019-05-12T21:06:44.285Z,99.90
2019-05-12T21:09:14.484Z,99.90
2019-05-12T21:11:44.831Z,99.90
2019-05-12T21:14:14.761Z,99.90
2019-05-12T21:16:45.049Z,99.90
2019-05-12T21:19:15.193Z,99.90
2019-05-12T21:21:45.447Z,99.90
2019-05-12T21:24:15.096Z,99.90
2019-05-12T21:26:44.645Z,99.90
2019-05-12T21:29:19.025Z,99.90
2019-05-12T21:31:48.536Z,99.90
2019-05-12T21:34:21.133Z,99.90
2019-05-12T21:36:49.738Z,99.90
2019-05-12T21:39:19.561Z,99.90
2019-05-12T21:41:52.042Z,99.90
2019-05-12T21:44:20.365Z,99.90
2019-05-12T21:47:01.061Z,99.90
2019-05-12T21:49:21.180Z,99.90
2019-05-12T21:51:59.405Z,99.90
2019-05-12T21:54:24.043Z,99.90
2019-05-12T21:56:54.322Z,99.90
2019-05-12T21:59:29.031Z,99.90
2019-05-12T22:02:04.270Z,99.90
2019-05-12T22:04:41.255Z,99.90
2019-05-12T22:07:06.944Z,99.90
2019-05-12T22:09:41.451Z,99.90
2019-05-12T22:12:08.941Z,99.90
2019-05-12T22:14:40.797Z,99.90
2019-05-12T22:17:10.164Z,99.90
2019-05-12T22:19:39.683Z,99.90
2019-05-12T22:22:09.637Z,99.90
2019-05-12T22:24:39.186Z,99.90
2019-05-12T22:27:16.126Z,99.90
2019-05-12T22:29:39.994Z,99.90
2019-05-12T22:32:09.802Z,99.90
2019-05-12T22:34:41.951Z,99.90
2019-05-12T22:37:13.582Z,99.90
2019-05-12T22:39:44.506Z,99.90
2019-05-12T22:42:20.261Z,99.90
2019-05-12T22:44:45.421Z,99.90
2019-05-12T22:47:17.508Z,99.90
2019-05-12T22:49:52.153Z,99.90
2019-05-12T22:52:18.048Z,99.90
2019-05-12T22:54:50.932Z,99.90
2019-05-12T22:57:18.917Z,99.90
2019-05-12T22:59:48.485Z,99.90
2019-05-12T23:02:28.032Z,99.90
2019-05-12T23:04:49.866Z,99.90
2019-05-12T23:07:25.484Z,99.90
2019-05-12T23:09:55.065Z,99.90
2019-05-12T23:12:24.724Z,99.90
2019-05-12T23:15:03.041Z,99.90
2019-05-12T23:17:26.229Z,99.90
2019-05-12T23:19:56.193Z,99.90
2019-05-12T23:22:29.368Z,99.90
2019-05-12T23:24:57.849Z,99.90
2019-05-12T23:27:29.853Z,99.90
2019-05-12T23:30:01.548Z,99.90
2019-05-12T23:32:30.379Z,99.90
2019-05-12T23:35:03.871Z,99.90
2019-05-12T23:37:38.389Z,99.90
2019-05-12T23:40:11.255Z,99.90
2019-05-12T23:42:36.588Z,99.90
2019-05-12T23:45:06.685Z,99.90
2019-05-12T23:47:36.228Z,99.90
2019-05-12T23:50:06.433Z,99.90
2019-05-12T23:52:35.969Z,99.90
2019-05-12T23:55:05.701Z,99.90
2019-05-12T23:57:35.660Z,99.90
